Aérodrome :







RETROUVEZ-NOUS SUR...

 
LOGIN :

S'inscrire | Disclaimer

   EN    FR    IT 

 









Légende :    VFR   VFR Marginal   IFR   IFR Intensif   IFR Très Intensif
Visi : 
Plafond : 
>= 8 km
>= 3000ft
5 à 8 km
1000 à 3000 ft
1500m à 5 km
500 à 1000 ft
800 à 1500m
200 à 500 ft
< 800m
< 200 ft
Symboles :   Orages  Brouillard  Fortes neiges  Fortes précipitations  Vent > 20 kt






- Altitude de l'aérodrome : 792 ft
- Code IATA : YSC


CYSC - Sherbrooke

DERNIER METAR :
  • 150201Z AUTO 10008KT 9SM BKN036 OVC055 08/07 A2895 RMK SLP809 DENSITY ALT 1200FT

METARs EXPIRÉS :
  • 150145Z AUTO 09008KT 9SM -RA BKN036 BKN055 OVC067 06/06 A2896 RMK PRESFR SLP812 DENSITY ALT 1000FT
  • 150100Z AUTO 07005KT 9SM OVC038 05/05 A2899 RMK SLP825 DENSITY ALT 800FT
  • 150000Z AUTO 05007KT 9SM BKN028 BKN034 OVC049 05/05 A2905 RMK PRESFR SLP845
  • 142300Z AUTO 05007KT 9SM OVC028 05/05 A2911 RMK SLP867

TAF TAF CYSC
Valide du 15 à 00h jusqu'au 15 à 03h UTC


142345Z 1500/1503 05006KT P6SM OVC025
TEMPO 1500/1503 3SM -DZ -RA BR OVC007
BECMG 1500/1502 14010G20KT RMK FCST BASED ON AUTO OBS. NXT FCST WILL BE ISSUED AT 151045Z



MET'MAP, la Météo Aéronautique d'un coup d'oeil ! - Copyright ORBIFLY Décembre 2007 - Disclaimer

ORBIFLY MET'MAP TEAM :

Programmation & Développement : Alexandra Zaïnal
Sur une idée originale de : Baudouin d'Aumeries
Assistance à la programmation : Marc-Olivier Méhu
Soutien technique & logistique : Manuel Goepfert

Contact : metmap@orbifly.com




SOURCES & CREDITS :

   NOAA